Time;durP1;ratioP1;P1;durP2;ratioP2;P2;SDS_P1;SDS_P2;PMS_P1;PMS_P2;Temp;Humidity;BMP_temperature;BMP_pressure;BME280_temperature;BME280_humidity;BME280_pressure;Samples;Min_cycle;Max_cycle;Signal;HPM_P1;HPM_P2
2024/01/31 00:00:27;;;;;;;1.75;1.25;;;;;;;4.02;100.00;97437.19;1031902;28;20484;-72
2024/01/31 00:00:57;;;;;;;0.30;0.30;;;;;;;3.99;100.00;97443.59;1031801;28;20265;-70
2024/01/31 00:01:28;;;;;;;0.88;0.88;;;;;;;3.99;100.00;97440.97;1028140;28;20112;-70
2024/01/31 00:01:59;;;;;;;0.77;0.77;;;;;;;3.99;100.00;97443.59;1031970;28;20049;-69
2024/01/31 00:02:29;;;;;;;0.75;0.43;;;;;;;3.98;100.00;97441.94;1031908;28;20482;-69
2024/01/31 00:03:00;;;;;;;0.88;0.88;;;;;;;3.97;100.00;97442.94;1032237;28;20273;-70
2024/01/31 00:03:31;;;;;;;0.68;0.68;;;;;;;3.97;100.00;97445.53;1038282;28;20026;-73
2024/01/31 00:04:02;;;;;;;1.40;0.47;;;;;;;3.97;100.00;97444.72;1043110;28;20259;-70
2024/01/31 00:04:32;;;;;;;0.17;0.17;;;;;;;3.92;100.00;97434.91;1043299;28;20045;-70
2024/01/31 00:05:04;;;;;;;0.80;0.50;;;;;;;3.95;100.00;97442.31;1035005;28;20058;-73
2024/01/31 00:05:34;;;;;;;0.43;0.43;;;;;;;3.91;100.00;97435.84;1034699;28;20470;-69
2024/01/31 00:06:05;;;;;;;1.23;0.68;;;;;;;3.92;100.00;97442.69;1026841;29;20321;-70
2024/01/31 00:06:35;;;;;;;0.82;0.80;;;;;;;3.92;100.00;97442.69;1027185;28;20533;-72
2024/01/31 00:07:05;;;;;;;1.48;1.15;;;;;;;3.92;100.00;97441.84;1030742;28;20581;-70
2024/01/31 00:07:36;;;;;;;1.42;1.00;;;;;;;3.91;100.00;97438.44;1026790;28;20023;-69
2024/01/31 00:08:06;;;;;;;0.70;0.70;;;;;;;3.90;100.00;97442.03;1030567;28;20508;-72
2024/01/31 00:08:37;;;;;;;0.57;0.57;;;;;;;3.91;100.00;97438.44;1030453;28;20030;-73
2024/01/31 00:09:09;;;;;;;0.28;0.28;;;;;;;3.90;100.00;97447.25;1032034;28;20026;-69
2024/01/31 00:09:40;;;;;;;1.88;1.13;;;;;;;3.89;100.00;97443.03;1031975;28;20018;-71
2024/01/31 00:10:11;;;;;;;0.57;0.57;;;;;;;3.89;100.00;97437.84;1028118;28;20349;-69
2024/01/31 00:10:41;;;;;;;0.95;0.95;;;;;;;3.90;100.00;97446.44;1032208;28;20045;-69
2024/01/31 00:11:12;;;;;;;1.35;0.75;;;;;;;3.90;100.00;97443.84;1031970;28;20285;-69
2024/01/31 00:11:42;;;;;;;1.27;0.68;;;;;;;3.92;100.00;97442.69;1027835;28;20031;-70
2024/01/31 00:12:13;;;;;;;0.50;0.50;;;;;;;3.92;100.00;97444.44;1027752;28;20038;-70
2024/01/31 00:12:43;;;;;;;1.92;1.27;;;;;;;3.92;100.00;97444.44;1028052;28;20034;-70
2024/01/31 00:13:14;;;;;;;0.50;0.50;;;;;;;3.92;100.00;97447.88;1031958;28;20041;-69
2024/01/31 00:13:44;;;;;;;0.20;0.20;;;;;;;3.90;100.00;97442.03;1031963;28;20084;-69
2024/01/31 00:14:16;;;;;;;1.58;0.70;;;;;;;3.88;100.00;97446.59;1035996;28;20416;-69
2024/01/31 00:14:47;;;;;;;0.65;0.65;;;;;;;3.77;100.00;97444.44;1036064;28;20030;-70
2024/01/31 00:15:17;;;;;;;0.00;0.00;;;;;;;3.67;100.00;97444.69;1032234;28;20706;-69
2024/01/31 00:15:48;;;;;;;3.53;0.35;;;;;;;3.71;100.00;97450.34;1036076;28;20084;-69
2024/01/31 00:16:18;;;;;;;1.98;1.45;;;;;;;3.68;100.00;97453.28;1035936;28;20044;-70
2024/01/31 00:16:49;;;;;;;1.42;0.68;;;;;;;3.65;100.00;97451.84;1035902;28;20041;-69
2024/01/31 00:17:19;;;;;;;1.85;0.60;;;;;;;3.66;100.00;97452.66;1035951;28;20045;-69
2024/01/31 00:17:51;;;;;;;2.42;1.33;;;;;;;3.62;100.00;97446.19;1036194;28;20033;-69
2024/01/31 00:18:21;;;;;;;0.30;0.30;;;;;;;3.64;100.00;97450.22;1035566;28;20477;-70
2024/01/31 00:18:52;;;;;;;4.25;1.15;;;;;;;3.63;100.00;97453.03;1027070;28;20270;-69
2024/01/31 00:19:22;;;;;;;1.27;1.17;;;;;;;3.62;100.00;97451.38;1023980;29;20569;-69
2024/01/31 00:19:53;;;;;;;2.25;1.25;;;;;;;3.60;100.00;97445.59;1023818;29;20023;-69
2024/01/31 00:20:24;;;;;;;2.75;1.10;;;;;;;3.62;100.00;97447.03;1022121;28;20080;-69
2024/01/31 00:20:54;;;;;;;0.77;0.77;;;;;;;3.62;100.00;97456.56;1028106;28;20031;-70
2024/01/31 00:21:24;;;;;;;1.58;1.08;;;;;;;3.58;100.00;97450.94;1027703;28;20765;-69
2024/01/31 00:21:55;;;;;;;0.40;0.40;;;;;;;3.53;100.00;97443.69;1027797;28;20057;-72
2024/01/31 00:22:25;;;;;;;2.75;1.95;;;;;;;3.53;100.00;97448.88;1023675;29;20034;-70
2024/01/31 00:22:56;;;;;;;0.57;0.57;;;;;;;3.50;100.00;97448.41;1019884;28;20036;-69
2024/01/31 00:23:27;;;;;;;0.52;0.52;;;;;;;3.44;100.00;97442.13;1023798;29;20220;-69
2024/01/31 00:23:57;;;;;;;0.65;0.65;;;;;;;3.45;100.00;97448.94;1023563;28;20015;-70
2024/01/31 00:24:28;;;;;;;1.35;1.27;;;;;;;3.43;100.00;97444.91;1027831;28;20487;-69
2024/01/31 00:24:58;;;;;;;0.82;0.82;;;;;;;3.42;100.00;97448.47;1031832;28;20389;-69
2024/01/31 00:25:28;;;;;;;0.00;0.00;;;;;;;3.38;100.00;97452.41;1033802;28;20073;-69
2024/01/31 00:25:59;;;;;;;1.73;0.90;;;;;;;3.38;100.00;97453.19;1035873;28;20080;-70
2024/01/31 00:26:29;;;;;;;8.52;1.17;;;;;;;3.36;100.00;97452.59;1027715;28;20035;-69
2024/01/31 00:27:00;;;;;;;1.38;1.27;;;;;;;3.33;100.00;97458.13;1031659;28;20026;-67
2024/01/31 00:27:30;;;;;;;0.65;0.65;;;;;;;3.31;100.00;97449.69;1027818;28;20030;-70
2024/01/31 00:28:01;;;;;;;0.10;0.10;;;;;;;3.31;100.00;97454.88;1027729;28;20034;-69
2024/01/31 00:28:31;;;;;;;0.52;0.52;;;;;;;3.30;100.00;97450.69;1031805;28;20026;-69
2024/01/31 00:29:02;;;;;;;1.25;1.10;;;;;;;3.26;100.00;97454.63;1032948;28;20022;-69
2024/01/31 00:29:32;;;;;;;1.15;0.80;;;;;;;3.17;100.00;97442.69;1032016;28;20030;-69
2024/01/31 00:30:03;;;;;;;1.92;1.75;;;;;;;3.18;100.00;97444.28;1033735;28;20034;-71
2024/01/31 00:30:34;;;;;;;2.47;2.30;;;;;;;3.14;100.00;97459.38;1035828;28;20509;-69
2024/01/31 00:31:04;;;;;;;1.17;0.90;;;;;;;3.10;100.00;97447.75;1033629;28;20153;-69
2024/01/31 00:31:35;;;;;;;0.10;0.10;;;;;;;3.10;100.00;97454.72;1028052;28;20522;-69
2024/01/31 00:32:06;;;;;;;1.40;1.27;;;;;;;3.06;100.00;97451.66;1035134;28;20035;-72
2024/01/31 00:32:36;;;;;;;0.28;0.28;;;;;;;2.98;100.00;97455.09;1031603;28;20730;-69
2024/01/31 00:33:06;;;;;;;0.47;0.47;;;;;;;2.90;100.00;97451.78;1027816;28;20030;-69
2024/01/31 00:33:38;;;;;;;6.32;1.10;;;;;;;2.96;100.00;97458.88;1023886;29;20034;-70
2024/01/31 00:34:08;;;;;;;0.80;0.73;;;;;;;2.92;100.00;97453.22;1027534;28;20022;-69
2024/01/31 00:34:39;;;;;;;3.60;1.10;;;;;;;2.96;100.00;97461.47;1031036;28;20265;-69
2024/01/31 00:35:09;;;;;;;0.20;0.20;;;;;;;2.91;100.00;97464.53;1027228;28;20465;-70
2024/01/31 00:35:40;;;;;;;0.60;0.52;;;;;;;2.87;100.00;97457.28;1030132;28;20034;-69
2024/01/31 00:36:11;;;;;;;1.92;1.27;;;;;;;2.86;100.00;97461.69;1031742;28;20030;-69
2024/01/31 00:36:41;;;;;;;1.15;0.47;;;;;;;2.80;100.00;97462.34;1027386;28;20529;-69
2024/01/31 00:37:12;;;;;;;0.68;0.52;;;;;;;2.80;100.00;97462.34;1027555;28;20297;-70
2024/01/31 00:37:42;;;;;;;2.30;0.77;;;;;;;2.78;100.00;97467.72;1031606;28;20522;-68
2024/01/31 00:38:13;;;;;;;1.23;0.38;;;;;;;2.72;100.00;97472.78;1023401;28;20027;-67
2024/01/31 00:38:43;;;;;;;4.75;1.30;;;;;;;2.71;100.00;97473.72;1031878;28;20093;-69
2024/01/31 00:39:14;;;;;;;3.88;1.08;;;;;;;2.68;100.00;97471.47;1030775;28;20037;-69
2024/01/31 00:39:47;;;;;;;0.60;0.60;;;;;;;2.65;100.00;97467.47;1031920;28;20034;-69
2024/01/31 00:40:17;;;;;;;0.68;0.68;;;;;;;2.58;100.00;97469.09;1027441;28;20026;-69
2024/01/31 00:40:47;;;;;;;0.52;0.52;;;;;;;2.56;100.00;97473.66;1021532;29;20783;-68
2024/01/31 00:41:18;;;;;;;0.47;0.47;;;;;;;2.53;100.00;97466.22;1023593;29;20412;-69
2024/01/31 00:41:50;;;;;;;0.93;0.88;;;;;;;2.51;100.00;97473.34;1023645;28;20038;-69
2024/01/31 00:42:20;;;;;;;0.20;0.20;;;;;;;2.48;100.00;97469.31;1024118;28;20388;-70
2024/01/31 00:42:51;;;;;;;0.52;0.52;;;;;;;2.45;100.00;97474.84;1030792;28;20284;-69
2024/01/31 00:43:21;;;;;;;0.55;0.55;;;;;;;2.43;100.00;97473.38;1027413;28;20514;-70
2024/01/31 00:43:52;;;;;;;0.98;0.93;;;;;;;2.41;100.00;97473.53;1027693;28;20023;-69
2024/01/31 00:44:22;;;;;;;1.30;1.25;;;;;;;2.35;100.00;97469.03;1027412;28;20043;-69
2024/01/31 00:44:53;;;;;;;1.83;0.68;;;;;;;2.35;100.00;97476.81;1027633;28;20039;-69
2024/01/31 00:45:23;;;;;;;1.80;1.70;;;;;;;2.34;100.00;97478.56;1031532;28;20054;-69
2024/01/31 00:45:54;;;;;;;0.20;0.20;;;;;;;2.30;100.00;97473.91;1031605;28;20027;-69
2024/01/31 00:46:24;;;;;;;0.75;0.75;;;;;;;2.29;100.00;97485.25;1027720;28;20023;-69
2024/01/31 00:46:54;;;;;;;0.47;0.47;;;;;;;2.28;100.00;97483.63;1032042;28;20533;-69
2024/01/31 00:47:25;;;;;;;1.08;1.02;;;;;;;2.27;100.00;97487.19;1027665;28;20019;-69
2024/01/31 00:47:55;;;;;;;2.08;0.55;;;;;;;2.23;100.00;97488.50;1031539;28;20026;-70
2024/01/31 00:48:26;;;;;;;1.98;0.88;;;;;;;2.20;100.00;97483.66;1031859;28;20022;-68
2024/01/31 00:48:56;;;;;;;3.88;0.88;;;;;;;2.16;100.00;97482.38;1027290;28;20043;-69
2024/01/31 00:49:27;;;;;;;0.73;0.73;;;;;;;2.13;100.00;97486.91;1031900;28;20106;-70
2024/01/31 00:49:58;;;;;;;0.75;0.75;;;;;;;2.11;100.00;97483.69;1031628;28;20026;-70
2024/01/31 00:50:28;;;;;;;0.68;0.68;;;;;;;2.09;100.00;97485.63;1027618;28;20442;-69
2024/01/31 00:50:59;;;;;;;0.38;0.38;;;;;;;2.06;100.00;97483.34;1028097;28;20095;-69
2024/01/31 00:51:29;;;;;;;0.75;0.75;;;;;;;2.02;100.00;97487.25;1023593;28;20069;-69
2024/01/31 00:52:00;;;;;;;0.50;0.45;;;;;;;2.03;100.00;97491.44;1019993;29;20472;-71
2024/01/31 00:52:30;;;;;;;0.65;0.65;;;;;;;2.00;100.00;97490.97;1023843;28;20063;-69
2024/01/31 00:53:01;;;;;;;0.22;0.22;;;;;;;2.00;100.00;97499.53;1028683;28;20031;-70
2024/01/31 00:53:31;;;;;;;0.95;0.88;;;;;;;1.96;100.00;97495.69;1031970;28;20104;-69
2024/01/31 00:54:02;;;;;;;2.05;1.70;;;;;;;1.96;100.00;97494.88;1031804;28;20026;-72
2024/01/31 00:54:32;;;;;;;1.45;0.80;;;;;;;1.92;100.00;97494.41;1027975;28;20467;-69
2024/01/31 00:55:03;;;;;;;1.55;1.08;;;;;;;1.87;100.00;97494.06;1027535;28;20490;-68
2024/01/31 00:55:34;;;;;;;1.48;0.77;;;;;;;1.87;100.00;97494.06;1027677;28;20418;-70
2024/01/31 00:56:04;;;;;;;0.30;0.30;;;;;;;1.85;100.00;97499.41;1023822;28;20554;-69
2024/01/31 00:56:35;;;;;;;0.68;0.60;;;;;;;1.86;100.00;97507.97;1023517;28;20547;-69
2024/01/31 00:57:05;;;;;;;1.13;1.02;;;;;;;1.83;100.00;97508.31;1022185;28;20051;-69
2024/01/31 00:57:36;;;;;;;0.30;0.30;;;;;;;1.83;100.00;97508.31;1027905;28;20026;-72
2024/01/31 00:58:06;;;;;;;1.23;0.98;;;;;;;1.80;100.00;97503.47;1027537;28;20530;-69
2024/01/31 00:58:37;;;;;;;0.32;0.32;;;;;;;1.76;100.00;97505.56;1031933;28;20030;-69
2024/01/31 00:59:08;;;;;;;2.67;1.70;;;;;;;1.74;100.00;97507.50;1027253;28;20082;-70
2024/01/31 00:59:40;;;;;;;1.20;1.10;;;;;;;1.73;100.00;97505.09;1027730;28;20266;-69
2024/01/31 01:00:11;;;;;;;2.83;1.15;;;;;;;1.72;100.00;97508.66;1031906;28;20105;-69
2024/01/31 01:00:42;;;;;;;0.45;0.35;;;;;;;1.67;100.00;97508.31;1031013;28;20717;-70
2024/01/31 01:01:12;;;;;;;6.00;0.82;;;;;;;1.67;100.00;97505.72;1030986;28;20123;-70
2024/01/31 01:01:43;;;;;;;0.60;0.43;;;;;;;1.64;100.00;97507.69;1031651;28;20026;-68
2024/01/31 01:02:13;;;;;;;0.57;0.57;;;;;;;1.55;100.00;97495.72;1031643;28;20079;-70
2024/01/31 01:02:44;;;;;;;0.40;0.40;;;;;;;1.62;100.00;97509.63;1031613;28;20489;-69
2024/01/31 01:03:14;;;;;;;0.75;0.75;;;;;;;1.60;100.00;97514.13;1021045;29;20118;-69
2024/01/31 01:03:44;;;;;;;2.53;0.95;;;;;;;1.58;100.00;97513.50;1019508;29;20467;-70
2024/01/31 01:04:15;;;;;;;0.77;0.77;;;;;;;1.55;100.00;97513.81;1023390;29;20019;-70
2024/01/31 01:04:45;;;;;;;1.80;0.98;;;;;;;1.48;100.00;97507.69;1023534;28;20019;-69
2024/01/31 01:05:16;;;;;;;0.70;0.68;;;;;;;1.53;100.00;97520.91;1035033;28;20061;-71
2024/01/31 01:05:46;;;;;;;0.77;0.77;;;;;;;1.45;100.00;97515.75;1032122;28;20113;-71
2024/01/31 01:06:17;;;;;;;1.70;1.05;;;;;;;1.47;100.00;97528.50;1031415;28;20037;-71
2024/01/31 01:06:47;;;;;;;1.02;1.02;;;;;;;1.47;100.00;97531.09;1024704;28;20031;-69
2024/01/31 01:07:18;;;;;;;0.20;0.20;;;;;;;1.45;100.00;97533.88;1027646;28;20035;-71
2024/01/31 01:07:49;;;;;;;0.88;0.88;;;;;;;1.46;100.00;97532.88;1027451;28;20021;-69
2024/01/31 01:08:19;;;;;;;0.43;0.43;;;;;;;1.43;100.00;97530.63;1028556;28;20034;-69
2024/01/31 01:08:50;;;;;;;0.88;0.65;;;;;;;1.43;100.00;97528.03;1034865;28;20080;-70
2024/01/31 01:09:20;;;;;;;2.50;1.13;;;;;;;1.46;100.00;97535.47;1035675;28;20084;-69
2024/01/31 01:09:51;;;;;;;0.60;0.60;;;;;;;1.44;100.00;97536.59;1035740;28;20058;-69
2024/01/31 01:10:21;;;;;;;0.25;0.25;;;;;;;1.43;100.00;97528.03;1031298;28;20022;-69
2024/01/31 01:10:52;;;;;;;0.43;0.43;;;;;;;1.41;100.00;97532.56;1031364;28;20065;-69
2024/01/31 01:11:23;;;;;;;0.80;0.80;;;;;;;1.40;100.00;97536.91;1028090;28;20019;-67
2024/01/31 01:11:53;;;;;;;0.75;0.57;;;;;;;1.38;100.00;97535.47;1031386;28;20269;-69
2024/01/31 01:12:24;;;;;;;0.93;0.93;;;;;;;1.39;100.00;97534.50;1031512;28;20022;-69
2024/01/31 01:12:56;;;;;;;0.68;0.68;;;;;;;1.40;100.00;97538.69;1031413;28;20018;-71
2024/01/31 01:13:26;;;;;;;6.85;1.15;;;;;;;1.38;100.00;97535.47;1031190;28;20049;-70
2024/01/31 01:13:57;;;;;;;1.05;0.95;;;;;;;1.39;100.00;97530.13;1031847;28;20756;-70
2024/01/31 01:14:27;;;;;;;1.00;1.00;;;;;;;1.37;100.00;97531.25;1031108;28;20018;-67
2024/01/31 01:14:58;;;;;;;0.55;0.55;;;;;;;1.39;100.00;97534.50;1027366;28;20026;-70
2024/01/31 01:15:28;;;;;;;2.17;1.55;;;;;;;1.36;100.00;97534.81;1031460;28;20026;-70
2024/01/31 01:15:59;;;;;;;0.20;0.20;;;;;;;1.34;100.00;97537.56;1027362;28;20050;-70
2024/01/31 01:16:30;;;;;;;1.65;1.55;;;;;;;1.29;100.00;97531.25;1027387;28;20071;-70
2024/01/31 01:17:00;;;;;;;0.98;0.95;;;;;;;1.33;100.00;97535.13;1023112;29;20410;-71
2024/01/31 01:17:31;;;;;;;2.55;2.35;;;;;;;1.30;100.00;97535.44;1023280;28;20031;-69
2024/01/31 01:18:01;;;;;;;1.15;1.08;;;;;;;1.32;100.00;97538.69;1027417;28;20026;-68
2024/01/31 01:18:32;;;;;;;0.32;0.32;;;;;;;1.29;100.00;97539.00;1027000;28;20037;-69
2024/01/31 01:19:04;;;;;;;3.20;2.45;;;;;;;1.28;100.00;97545.16;1034839;28;20032;-69
2024/01/31 01:19:34;;;;;;;0.47;0.45;;;;;;;1.25;100.00;97537.72;1035485;28;20041;-70
2024/01/31 01:20:08;;;;;;;0.85;0.40;;;;;;;1.24;100.00;97536.06;1035479;28;20269;-70
2024/01/31 01:20:38;;;;;;;1.00;0.50;;;;;;;1.22;100.00;97543.19;1031335;28;20030;-70
2024/01/31 01:21:09;;;;;;;1.65;0.80;;;;;;;1.20;100.00;97534.78;1031162;28;20265;-70
2024/01/31 01:21:39;;;;;;;0.80;0.40;;;;;;;1.15;100.00;97541.25;1031464;28;20022;-70
2024/01/31 01:22:10;;;;;;;1.25;1.10;;;;;;;1.15;100.00;97537.84;1032045;28;20027;-70
2024/01/31 01:22:42;;;;;;;2.65;0.75;;;;;;;1.15;100.00;97540.44;1031311;28;20054;-71
2024/01/31 01:23:15;;;;;;;0.93;0.93;;;;;;;1.13;100.00;97535.41;1031399;28;20077;-69
2024/01/31 01:23:45;;;;;;;0.57;0.57;;;;;;;1.13;100.00;97540.59;1031287;28;20281;-70
2024/01/31 01:24:15;;;;;;;0.95;0.35;;;;;;;1.09;100.00;97541.88;1031893;28;20289;-69
2024/01/31 01:24:46;;;;;;;0.08;0.08;;;;;;;1.10;100.00;97540.91;1031600;28;20023;-71
2024/01/31 01:25:16;;;;;;;0.40;0.30;;;;;;;1.08;100.00;97535.09;1031256;28;20518;-70
2024/01/31 01:25:47;;;;;;;0.75;0.75;;;;;;;1.10;100.00;97546.06;1027281;28;20042;-72
2024/01/31 01:26:18;;;;;;;3.40;1.27;;;;;;;1.07;100.00;97541.22;1023750;29;20030;-69
2024/01/31 01:26:48;;;;;;;1.13;0.90;;;;;;;1.08;100.00;97542.84;1023450;29;20035;-71
2024/01/31 01:27:19;;;;;;;0.68;0.68;;;;;;;1.08;100.00;97548.00;1027167;28;20027;-72
2024/01/31 01:27:52;;;;;;;0.80;0.52;;;;;;;1.07;100.00;97543.00;1031333;28;20521;-69
2024/01/31 01:28:22;;;;;;;1.15;0.82;;;;;;;1.03;100.00;97545.09;1035398;28;20520;-68
2024/01/31 01:28:53;;;;;;;1.23;1.00;;;;;;;1.01;100.00;97541.88;1035057;28;20276;-71
2024/01/31 01:29:23;;;;;;;0.57;0.45;;;;;;;1.04;100.00;97551.88;1035997;28;20513;-69
2024/01/31 01:29:54;;;;;;;2.20;2.08;;;;;;;1.05;100.00;97556.09;1035324;28;20453;-69
2024/01/31 01:30:24;;;;;;;0.75;0.75;;;;;;;1.05;100.00;97550.09;1035725;28;20042;-70
2024/01/31 01:30:55;;;;;;;0.40;0.40;;;;;;;1.03;100.00;97547.66;1031217;28;20402;-71
2024/01/31 01:31:25;;;;;;;0.52;0.50;;;;;;;1.03;100.00;97545.09;1027897;28;20034;-72
2024/01/31 01:31:56;;;;;;;1.85;1.38;;;;;;;1.02;100.00;97553.00;1031608;28;20018;-69
2024/01/31 01:32:26;;;;;;;0.63;0.63;;;;;;;1.01;100.00;97547.03;1031468;28;20557;-69
2024/01/31 01:32:56;;;;;;;0.63;0.63;;;;;;;0.96;100.00;97546.69;1035728;28;20037;-72
2024/01/31 01:33:27;;;;;;;1.88;0.85;;;;;;;1.00;100.00;97550.56;1031358;28;20023;-71
2024/01/31 01:33:59;;;;;;;0.75;0.75;;;;;;;0.97;100.00;97547.47;1029298;28;20108;-70
2024/01/31 01:34:29;;;;;;;1.13;1.02;;;;;;;1.00;100.00;97550.56;1023726;29;20129;-69
2024/01/31 01:35:00;;;;;;;3.33;1.30;;;;;;;0.99;100.00;97546.38;1018588;28;20255;-69
2024/01/31 01:35:30;;;;;;;2.22;1.52;;;;;;;0.98;100.00;97551.72;1028363;28;20031;-69
2024/01/31 01:36:01;;;;;;;1.30;1.15;;;;;;;0.98;100.00;97551.72;1031589;28;20023;-69
2024/01/31 01:36:31;;;;;;;0.45;0.30;;;;;;;0.95;100.00;97552.81;1031525;28;20027;-68
2024/01/31 01:37:02;;;;;;;1.52;1.38;;;;;;;0.96;100.00;97558.78;1035773;28;20097;-70
2024/01/31 01:37:32;;;;;;;0.22;0.20;;;;;;;0.93;100.00;97544.41;1035137;28;20129;-69
2024/01/31 01:38:03;;;;;;;0.57;0.45;;;;;;;0.93;100.00;97552.97;1031502;28;20022;-69
2024/01/31 01:38:35;;;;;;;2.83;1.25;;;;;;;0.92;100.00;97553.13;1035781;28;20105;-70
2024/01/31 01:39:06;;;;;;;0.32;0.30;;;;;;;0.93;100.00;97550.38;1030703;28;20493;-70
2024/01/31 01:39:37;;;;;;;0.50;0.50;;;;;;;0.92;100.00;97555.72;1031854;28;20266;-71
2024/01/31 01:40:08;;;;;;;0.45;0.30;;;;;;;0.93;100.00;97552.16;1031300;28;20034;-68
2024/01/31 01:40:44;;;;;;;0.52;0.50;;;;;;;0.89;100.00;97556.84;1027169;28;20358;-69
2024/01/31 01:41:15;;;;;;;2.55;0.65;;;;;;;0.89;100.00;97559.41;1023686;29;20271;-70
2024/01/31 01:41:51;;;;;;;1.38;0.70;;;;;;;0.91;100.00;97565.25;1023543;29;20273;-70
2024/01/31 01:42:22;;;;;;;0.90;0.90;;;;;;;0.90;100.00;97558.44;1027002;28;20030;-69
2024/01/31 01:42:52;;;;;;;5.07;1.13;;;;;;;0.88;100.00;97557.00;1031406;28;20285;-69
2024/01/31 01:43:23;;;;;;;1.90;1.45;;;;;;;0.89;100.00;97563.78;1024348;28;20141;-69
2024/01/31 01:43:53;;;;;;;0.80;0.80;;;;;;;0.89;100.00;97568.94;1027578;28;20037;-69
2024/01/31 01:44:24;;;;;;;0.63;0.57;;;;;;;0.89;100.00;97563.78;1027358;28;20034;-69
2024/01/31 01:44:54;;;;;;;2.08;1.45;;;;;;;0.72;100.00;97544.81;1027692;28;20022;-71
2024/01/31 01:45:29;;;;;;;0.17;0.17;;;;;;;0.85;100.00;97565.06;1035834;28;20018;-69
2024/01/31 01:46:12;;;;;;;1.02;0.52;;;;;;;0.83;100.00;97559.22;1035570;28;20022;-69
2024/01/31 01:46:43;;;;;;;0.70;0.50;;;;;;;0.83;100.00;97565.19;1031793;28;21005;-69
2024/01/31 01:47:14;;;;;;;1.13;1.10;;;;;;;0.81;100.00;97568.94;1031340;28;20289;-68
2024/01/31 01:47:48;;;;;;;0.30;0.20;;;;;;;0.78;100.00;97562.28;1027361;28;20042;-69
2024/01/31 01:48:18;;;;;;;0.60;0.55;;;;;;;0.85;100.00;97572.81;1025101;28;20514;-70
2024/01/31 01:48:49;;;;;;;6.60;1.95;;;;;;;0.85;100.00;97572.81;1022828;29;20355;-69
2024/01/31 01:49:20;;;;;;;0.93;0.65;;;;;;;0.84;100.00;97572.00;1024390;28;20092;-69
2024/01/31 01:49:50;;;;;;;0.45;0.45;;;;;;;0.79;100.00;97558.72;1029980;28;20981;-68
2024/01/31 01:50:21;;;;;;;3.67;0.90;;;;;;;0.84;100.00;97566.84;1027521;28;20022;-70
2024/01/31 01:50:51;;;;;;;0.15;0.10;;;;;;;0.85;100.00;97563.28;1023803;28;20031;-70
2024/01/31 01:51:23;;;;;;;0.28;0.28;;;;;;;0.84;100.00;97572.00;1027296;28;20083;-68
2024/01/31 01:51:53;;;;;;;0.55;0.55;;;;;;;0.84;100.00;97558.25;1019670;29;20118;-69
2024/01/31 01:52:24;;;;;;;0.08;0.08;;;;;;;0.93;100.00;97570.25;1023578;28;20770;-68
2024/01/31 01:52:55;;;;;;;0.10;0.10;;;;;;;0.97;100.00;97563.78;1019510;29;20063;-72
2024/01/31 01:53:25;;;;;;;2.72;0.93;;;;;;;0.94;100.00;97564.13;1024042;28;20958;-69
2024/01/31 01:53:56;;;;;;;0.80;0.80;;;;;;;0.93;100.00;97571.06;1027386;28;20402;-69
2024/01/31 01:54:26;;;;;;;0.30;0.30;;;;;;;0.89;100.00;97569.75;1023395;28;20039;-69
2024/01/31 01:54:57;;;;;;;0.10;0.10;;;;;;;0.93;100.00;97576.22;1019746;29;20094;-70
2024/01/31 01:55:28;;;;;;;1.60;1.10;;;;;;;0.91;100.00;97578.16;1015607;29;20028;-69
2024/01/31 01:55:59;;;;;;;0.32;0.13;;;;;;;0.92;100.00;97574.63;1019919;28;20178;-69
2024/01/31 01:56:29;;;;;;;3.72;1.95;;;;;;;0.91;100.00;97578.16;1027455;28;20106;-69
2024/01/31 01:57:00;;;;;;;1.40;1.30;;;;;;;0.92;100.00;97578.97;1023541;28;20302;-68
2024/01/31 01:57:31;;;;;;;0.63;0.30;;;;;;;0.90;100.00;97573.13;1027579;28;20030;-70
2024/01/31 01:58:01;;;;;;;0.28;0.28;;;;;;;0.88;100.00;97569.91;1023533;28;20027;-69
2024/01/31 01:58:32;;;;;;;1.05;0.65;;;;;;;0.85;100.00;97573.63;1023594;28;20269;-69
2024/01/31 01:59:03;;;;;;;1.02;0.93;;;;;;;0.86;100.00;97570.06;1027391;28;20027;-69
2024/01/31 01:59:34;;;;;;;0.28;0.28;;;;;;;0.87;100.00;97566.53;1023276;28;20038;-70
2024/01/31 02:00:05;;;;;;;1.08;0.98;;;;;;;0.87;100.00;97579.44;1019838;29;20024;-69
2024/01/31 02:00:35;;;;;;;1.30;0.85;;;;;;;0.88;100.00;97572.50;1019491;29;20040;-69
2024/01/31 02:01:06;;;;;;;3.30;0.45;;;;;;;0.85;100.00;97565.06;1015774;29;20268;-69
2024/01/31 02:01:37;;;;;;;0.93;0.93;;;;;;;0.81;100.00;97561.19;1020310;29;20520;-69
2024/01/31 02:02:07;;;;;;;1.30;1.15;;;;;;;0.87;100.00;97565.69;1019982;29;20149;-68
2024/01/31 02:02:38;;;;;;;0.30;0.30;;;;;;;0.85;100.00;97567.66;1023886;29;20443;-69
2024/01/31 02:03:08;;;;;;;1.63;1.13;;;;;;;0.83;100.00;97564.41;1019822;29;20091;-70
2024/01/31 02:03:39;;;;;;;1.17;0.95;;;;;;;0.84;100.00;97571.19;1015846;29;20088;-70
2024/01/31 02:04:09;;;;;;;0.77;0.77;;;;;;;0.83;100.00;97564.41;1016057;29;20016;-71
2024/01/31 02:04:40;;;;;;;0.85;0.85;;;;;;;0.84;100.00;97560.84;1019444;29;20039;-69
2024/01/31 02:05:10;;;;;;;0.10;0.10;;;;;;;0.85;100.00;97568.44;1022477;29;20404;-69
2024/01/31 02:05:43;;;;;;;4.28;0.95;;;;;;;0.85;100.00;97557.31;1024035;28;20046;-70
2024/01/31 02:06:14;;;;;;;0.55;0.55;;;;;;;0.84;100.00;97566.00;1019608;29;20546;-69
2024/01/31 02:06:45;;;;;;;1.65;1.02;;;;;;;0.84;100.00;97566.84;1019950;28;20295;-69
2024/01/31 02:07:20;;;;;;;0.85;0.77;;;;;;;0.83;100.00;97570.38;1023627;29;20039;-69
2024/01/31 02:07:51;;;;;;;0.50;0.50;;;;;;;0.83;100.00;97569.56;1019070;29;20138;-70
2024/01/31 02:08:21;;;;;;;0.70;0.70;;;;;;;0.80;100.00;97570.69;1023469;29;20270;-70
2024/01/31 02:08:52;;;;;;;1.45;1.17;;;;;;;0.78;100.00;97567.47;1026637;28;20035;-68
2024/01/31 02:09:23;;;;;;;0.20;0.20;;;;;;;0.83;100.00;97565.19;1011630;29;20044;-69
2024/01/31 02:09:53;;;;;;;0.82;0.82;;;;;;;0.83;100.00;97559.22;1027516;28;20418;-68
2024/01/31 02:10:24;;;;;;;1.00;0.50;;;;;;;0.83;100.00;97562.63;1026535;28;20035;-69
2024/01/31 02:10:57;;;;;;;0.40;0.40;;;;;;;0.84;100.00;97558.25;1027349;28;20533;-69
2024/01/31 02:11:31;;;;;;;1.45;1.35;;;;;;;0.85;100.00;97565.88;1027759;28;20023;-69
2024/01/31 02:12:01;;;;;;;0.70;0.68;;;;;;;0.85;100.00;97559.91;1034893;28;20256;-69
2024/01/31 02:12:32;;;;;;;0.45;0.45;;;;;;;0.85;100.00;97562.47;1035450;28;20276;-69
2024/01/31 02:13:02;;;;;;;0.60;0.60;;;;;;;0.85;100.00;97567.66;1031756;28;20093;-69
2024/01/31 02:13:33;;;;;;;2.92;1.75;;;;;;;0.84;100.00;97566.84;1031239;28;20110;-71
2024/01/31 02:14:03;;;;;;;0.13;0.13;;;;;;;0.84;100.00;97566.00;1031610;28;20050;-69
2024/01/31 02:14:35;;;;;;;0.57;0.57;;;;;;;0.83;100.00;97567.78;1031351;28;20031;-69
2024/01/31 02:15:07;;;;;;;2.38;1.88;;;;;;;0.84;100.00;97566.00;1027653;28;20043;-69
2024/01/31 02:15:37;;;;;;;0.68;0.68;;;;;;;0.82;100.00;97567.94;1027273;28;20657;-70
2024/01/31 02:16:07;;;;;;;0.20;0.20;;;;;;;0.79;100.00;97563.09;1027217;28;20258;-71
2024/01/31 02:16:38;;;;;;;1.35;0.95;;;;;;;0.81;100.00;97572.31;1024009;28;20543;-69
2024/01/31 02:17:08;;;;;;;3.05;1.30;;;;;;;0.80;100.00;97575.84;1026703;28;20126;-69
2024/01/31 02:17:39;;;;;;;0.77;0.77;;;;;;;0.76;100.00;97559.03;1031199;28;20015;-69
2024/01/31 02:18:09;;;;;;;1.17;0.85;;;;;;;0.80;100.00;97572.47;1027203;28;20070;-70
2024/01/31 02:18:40;;;;;;;0.77;0.73;;;;;;;0.74;100.00;97567.91;1031018;28;20402;-70
2024/01/31 02:19:10;;;;;;;2.40;1.15;;;;;;;0.76;100.00;97569.38;1026560;28;20387;-69
2024/01/31 02:19:41;;;;;;;1.20;0.55;;;;;;;0.77;100.00;97570.19;1023115;28;20015;-69
2024/01/31 02:20:15;;;;;;;0.22;0.05;;;;;;;0.70;100.00;97559.66;1023699;28;20027;-69
2024/01/31 02:20:46;;;;;;;1.85;1.02;;;;;;;0.75;100.00;97566.97;1027730;28;20022;-70
2024/01/31 02:21:16;;;;;;;0.98;0.93;;;;;;;0.72;100.00;97572.44;1026726;28;20247;-68
2024/01/31 02:21:47;;;;;;;0.73;0.73;;;;;;;0.72;100.00;97572.44;1022979;29;20031;-72
2024/01/31 02:22:18;;;;;;;0.38;0.38;;;;;;;0.73;100.00;97574.03;1023716;28;20027;-67
2024/01/31 02:22:48;;;;;;;5.93;2.13;;;;;;;0.69;100.00;97574.34;1022587;28;20114;-69
2024/01/31 02:23:19;;;;;;;3.45;1.63;;;;;;;0.70;100.00;97573.41;1015699;29;20272;-69
2024/01/31 02:23:49;;;;;;;0.10;0.10;;;;;;;0.56;100.00;97553.31;1015362;29;20579;-70
2024/01/31 02:24:20;;;;;;;1.17;0.32;;;;;;;0.68;100.00;97572.75;1016927;29;20082;-70
2024/01/31 02:24:50;;;;;;;2.22;1.73;;;;;;;0.66;100.00;97564.31;1017830;28;20043;-69
2024/01/31 02:25:21;;;;;;;0.70;0.70;;;;;;;0.67;100.00;97570.28;1017627;29;20102;-68